Time;durP1;ratioP1;P1;durP2;ratioP2;P2;SDS_P1;SDS_P2;PMS_P1;PMS_P2;Temp;Humidity;BMP_temperature;BMP_pressure;BME280_temperature;BME280_humidity;BME280_pressure;Samples;Min_cycle;Max_cycle;Signal;HPM_P1;HPM_P2
2023/07/21 00:01:13;;;;;;;3.47;0.90;;;12.60;99.90;12.00;99841;;;;596022;237;24097;-80
2023/07/21 00:03:44;;;;;;;3.00;1.10;;;12.60;99.90;12.00;99833;;;;580578;248;24080;-80
2023/07/21 00:06:17;;;;;;;2.00;1.10;;;12.60;99.90;12.00;99835;;;;594718;237;25062;-79
2023/07/21 00:08:40;;;;;;;1.13;1.10;;;12.60;99.90;12.00;99833;;;;605693;237;24032;-83
2023/07/21 00:11:08;;;;;;;0.93;0.93;;;12.60;99.90;11.90;99833;;;;600453;237;24054;-81
2023/07/21 00:13:36;;;;;;;3.23;1.10;;;12.60;99.90;11.90;99825;;;;600517;237;24008;-82
2023/07/21 00:16:05;;;;;;;3.20;1.00;;;12.60;99.90;11.90;99829;;;;585623;243;24049;-80
2023/07/21 00:18:35;;;;;;;1.30;1.30;;;12.50;99.90;11.90;99833;;;;594447;237;24057;-82
2023/07/21 00:21:05;;;;;;;1.27;1.07;;;12.50;99.90;11.90;99830;;;;596324;234;24033;-83
2023/07/21 00:23:31;;;;;;;1.13;1.00;;;12.50;99.90;11.80;99835;;;;594381;237;24068;-80
2023/07/21 00:26:01;;;;;;;1.13;1.10;;;12.50;99.90;11.80;99826;;;;574497;248;24112;-80
2023/07/21 00:28:26;;;;;;;1.23;1.10;;;12.50;99.90;11.80;99830;;;;595551;238;24042;-80
2023/07/21 00:30:54;;;;;;;0.90;0.90;;;12.40;99.90;11.70;99832;;;;599797;238;24005;-80
2023/07/21 00:33:25;;;;;;;1.80;1.00;;;12.40;99.90;11.70;99836;;;;599761;238;24019;-80
2023/07/21 00:35:50;;;;;;;1.97;0.90;;;12.40;99.90;11.70;99836;;;;599853;238;24075;-80
2023/07/21 00:38:20;;;;;;;3.33;1.40;;;12.40;99.90;11.60;99842;;;;600351;238;24032;-82
2023/07/21 00:40:46;;;;;;;1.83;1.10;;;12.30;99.90;11.60;99839;;;;599861;238;24049;-82
2023/07/21 00:43:16;;;;;;;2.60;1.40;;;12.30;99.90;11.60;99835;;;;600263;238;24009;-79
2023/07/21 00:45:44;;;;;;;1.17;1.10;;;12.30;99.90;11.60;99836;;;;571869;248;24040;-81
2023/07/21 00:48:12;;;;;;;2.90;1.20;;;12.20;99.90;11.50;99839;;;;600354;238;24135;-81
2023/07/21 00:50:48;;;;;;;1.77;1.13;;;12.20;99.90;11.50;99834;;;;605353;238;24039;-80
2023/07/21 00:53:16;;;;;;;2.17;1.30;;;12.20;99.90;11.50;99837;;;;600212;238;24030;-80
2023/07/21 00:55:47;;;;;;;3.00;1.53;;;12.20;99.90;11.50;99828;;;;600345;238;24033;-83
2023/07/21 00:58:13;;;;;;;3.30;1.50;;;12.10;99.90;11.50;99834;;;;571868;245;24120;-81
2023/07/21 01:00:44;;;;;;;1.50;1.40;;;12.10;99.90;11.40;99838;;;;599878;238;24056;-81
2023/07/21 01:03:10;;;;;;;2.50;1.33;;;12.10;99.90;11.40;99833;;;;583676;245;24116;-81
2023/07/21 01:05:38;;;;;;;3.10;1.30;;;12.00;99.90;11.40;99829;;;;600918;237;24113;-80
2023/07/21 01:08:08;;;;;;;1.00;1.00;;;12.00;99.90;11.30;99836;;;;569915;247;24052;-81
2023/07/21 01:10:36;;;;;;;3.80;1.43;;;12.00;99.90;11.30;99825;;;;593891;237;24036;-81
2023/07/21 01:13:04;;;;;;;3.27;1.60;;;12.00;99.90;11.30;99826;;;;595679;237;25109;-79
2023/07/21 01:15:32;;;;;;;3.07;1.30;;;12.00;99.90;11.30;99823;;;;605300;237;24122;-80
2023/07/21 01:18:03;;;;;;;5.27;1.40;;;12.00;99.90;11.30;99823;;;;593540;237;24067;-80
2023/07/21 01:20:32;;;;;;;3.97;1.40;;;12.00;99.90;11.30;99826;;;;590105;243;24065;-81
2023/07/21 01:22:57;;;;;;;2.80;1.10;;;12.00;99.90;11.30;99820;;;;592814;237;24066;-80
2023/07/21 01:25:25;;;;;;;6.00;1.20;;;12.00;99.90;11.40;99823;;;;594288;237;24070;-80
2023/07/21 01:27:53;;;;;;;1.33;1.23;;;12.00;99.90;11.40;99819;;;;595395;237;24000;-80
2023/07/21 01:30:20;;;;;;;1.90;1.00;;;12.00;99.90;11.40;99818;;;;568793;248;24126;-80
2023/07/21 01:32:49;;;;;;;1.67;0.97;;;12.10;99.90;11.50;99822;;;;605566;237;24030;-83
2023/07/21 01:35:20;;;;;;;5.60;1.23;;;12.10;99.90;11.50;99824;;;;606068;237;24015;-81
2023/07/21 01:37:45;;;;;;;1.10;0.97;;;12.20;99.90;11.50;99829;;;;572143;245;24150;-81
2023/07/21 01:40:15;;;;;;;6.27;1.07;;;12.20;99.90;11.60;99833;;;;605635;238;24042;-81
2023/07/21 01:42:42;;;;;;;2.27;1.23;;;12.20;99.90;11.60;99829;;;;593965;238;24080;-83
2023/07/21 01:45:14;;;;;;;1.90;1.13;;;12.20;99.90;11.50;99832;;;;582480;244;24107;-82
2023/07/21 01:47:39;;;;;;;3.77;1.17;;;12.20;99.90;11.50;99825;;;;605311;238;24020;-82
2023/07/21 01:50:08;;;;;;;3.50;1.57;;;12.20;99.90;11.50;99835;;;;599820;238;24026;-82
2023/07/21 01:52:35;;;;;;;3.33;1.27;;;12.20;99.90;11.50;99827;;;;582385;246;24119;-83
2023/07/21 01:55:34;;;;;;;0.90;0.90;;;12.10;99.90;11.50;99826;;;;605387;238;24077;-82
2023/07/21 01:58:02;;;;;;;1.63;1.10;;;12.20;99.90;11.50;99830;;;;592446;238;24037;-80
2023/07/21 02:00:34;;;;;;;5.53;1.30;;;12.10;99.90;11.50;99826;;;;604924;238;24104;-80
2023/07/21 02:03:03;;;;;;;2.97;1.30;;;12.10;99.90;11.50;99827;;;;605611;238;24057;-79
2023/07/21 02:05:31;;;;;;;4.70;1.00;;;12.20;99.90;11.50;99829;;;;595623;238;24046;-81
2023/07/21 02:07:59;;;;;;;4.27;1.50;;;12.20;99.90;11.50;99825;;;;580518;243;24049;-82
2023/07/21 02:10:27;;;;;;;1.63;1.03;;;12.20;99.90;11.60;99826;;;;604974;238;24012;-80
2023/07/21 02:12:56;;;;;;;4.30;1.30;;;12.20;99.90;11.50;99821;;;;605226;235;24043;-81
2023/07/21 02:15:24;;;;;;;2.20;1.27;;;12.20;99.90;11.50;99826;;;;601419;237;24048;-83
2023/07/21 02:17:52;;;;;;;1.77;1.00;;;12.20;99.90;11.50;99829;;;;600872;237;24049;-83
2023/07/21 02:20:20;;;;;;;5.43;1.37;;;12.20;99.90;11.50;99826;;;;586137;243;24062;-83
2023/07/21 02:22:47;;;;;;;1.67;1.27;;;12.10;99.90;11.50;99829;;;;606083;237;24028;-83
2023/07/21 02:25:15;;;;;;;1.73;1.27;;;12.20;99.90;11.50;99830;;;;599627;237;24036;-84
2023/07/21 02:27:44;;;;;;;4.93;1.23;;;12.20;99.90;11.50;99832;;;;585796;243;24140;-83
2023/07/21 02:30:11;;;;;;;1.87;1.10;;;12.10;99.90;11.40;99833;;;;596850;237;24046;-83
2023/07/21 02:32:39;;;;;;;1.33;1.20;;;12.10;99.90;11.40;99828;;;;605738;237;24051;-84
2023/07/21 02:35:08;;;;;;;6.73;1.13;;;12.10;99.90;11.40;99824;;;;600693;237;24034;-83
2023/07/21 02:37:39;;;;;;;3.97;1.13;;;12.10;99.90;11.40;99821;;;;596679;237;24012;-84
2023/07/21 02:40:08;;;;;;;1.20;1.10;;;12.00;99.90;11.30;99826;;;;600714;237;23985;-82
2023/07/21 02:42:35;;;;;;;6.23;1.40;;;12.00;99.90;11.30;99828;;;;582941;246;24055;-83
2023/07/21 02:45:03;;;;;;;4.40;1.50;;;12.00;99.90;11.30;99829;;;;599940;237;24146;-81
2023/07/21 02:47:30;;;;;;;3.03;1.57;;;11.90;99.90;11.30;99833;;;;604875;237;24012;-79
2023/07/21 02:49:58;;;;;;;7.07;1.20;;;11.90;99.90;11.30;99837;;;;599049;238;24081;-80
2023/07/21 02:52:27;;;;;;;2.43;1.30;;;11.90;99.90;11.30;99840;;;;570582;248;24069;-79
2023/07/21 02:54:55;;;;;;;3.00;1.20;;;11.90;99.90;11.30;99836;;;;599014;238;24036;-80
2023/07/21 02:57:23;;;;;;;5.10;2.00;;;11.90;99.90;11.30;99843;;;;599016;237;24031;-79
2023/07/21 02:59:51;;;;;;;4.43;1.30;;;11.90;99.90;11.30;99843;;;;584448;243;24083;-80
2023/07/21 03:02:19;;;;;;;2.70;1.20;;;12.00;99.90;11.40;99846;;;;604658;238;24040;-79
2023/07/21 03:04:47;;;;;;;1.40;1.30;;;12.00;99.90;11.40;99843;;;;598605;238;24027;-80
2023/07/21 03:07:16;;;;;;;2.00;1.27;;;12.00;99.90;11.40;99835;;;;599282;238;24020;-79
2023/07/21 03:09:43;;;;;;;4.10;1.10;;;12.00;99.90;11.50;99845;;;;599633;238;24098;-80
2023/07/21 03:12:12;;;;;;;1.40;1.30;;;12.10;99.90;11.50;99847;;;;599505;238;24030;-79
2023/07/21 03:14:40;;;;;;;3.50;1.20;;;12.10;99.90;11.60;99850;;;;599704;238;24013;-81
2023/07/21 03:17:08;;;;;;;5.27;1.27;;;12.20;99.90;11.60;99846;;;;599583;238;24008;-82
2023/07/21 03:19:36;;;;;;;1.47;1.37;;;12.20;99.90;11.70;99848;;;;599073;238;24009;-79
2023/07/21 03:22:04;;;;;;;6.03;1.30;;;12.40;99.90;11.80;99853;;;;599122;238;24067;-79
2023/07/21 03:24:34;;;;;;;2.97;1.43;;;12.40;99.90;11.90;99852;;;;570951;246;24053;-81
2023/07/21 03:27:01;;;;;;;2.43;1.20;;;12.40;99.90;11.90;99851;;;;600456;237;24027;-80
2023/07/21 03:29:28;;;;;;;2.93;1.23;;;12.50;99.90;12.00;99853;;;;599689;237;24048;-80
2023/07/21 03:31:57;;;;;;;0.90;0.90;;;12.70;99.90;12.10;99851;;;;599523;237;24024;-80
2023/07/21 03:34:25;;;;;;;3.73;1.37;;;12.60;99.90;12.20;99849;;;;599702;237;24103;-80
2023/07/21 03:36:53;;;;;;;1.10;1.00;;;12.70;99.90;12.30;99852;;;;571039;248;24050;-79
2023/07/21 03:39:23;;;;;;;7.53;1.60;;;12.80;99.90;12.40;99852;;;;600185;237;24021;-80
2023/07/21 03:41:52;;;;;;;1.30;1.20;;;13.40;99.90;12.90;99846;;;;599461;237;24025;-80
2023/07/21 03:44:17;;;;;;;2.73;0.97;;;13.40;99.90;13.70;99856;;;;579626;247;24101;-79
2023/07/21 03:46:45;;;;;;;4.30;1.40;;;14.10;99.90;14.50;99859;;;;593330;237;24005;-77
2023/07/21 03:49:13;;;;;;;2.13;1.10;;;14.90;99.90;15.30;99859;;;;598861;237;24082;-79
2023/07/21 03:51:41;;;;;;;2.83;1.30;;;15.70;99.90;16.10;99855;;;;592933;237;24038;-79
2023/07/21 03:54:09;;;;;;;4.23;1.10;;;16.50;99.90;16.80;99860;;;;570733;248;24085;-79
2023/07/21 03:56:37;;;;;;;2.97;1.40;;;17.20;99.90;17.50;99862;;;;599521;237;24019;-83
2023/07/21 03:59:04;;;;;;;2.53;1.10;;;18.00;99.90;18.20;99871;;;;600197;237;24072;-83
2023/07/21 04:01:32;;;;;;;2.77;1.00;;;18.60;99.90;18.70;99865;;;;600101;238;24020;-81
2023/07/21 04:04:00;;;;;;;1.43;1.07;;;19.30;99.90;19.60;99866;;;;599981;238;24043;-84
2023/07/21 04:06:28;;;;;;;3.20;1.30;;;20.00;99.90;20.30;99867;;;;599928;238;24030;-81
2023/07/21 04:08:57;;;;;;;1.10;0.90;;;20.90;99.90;21.10;99867;;;;599941;238;24071;-80
2023/07/21 04:11:28;;;;;;;2.07;1.10;;;21.60;99.90;21.70;99864;;;;599448;238;24017;-81
2023/07/21 04:13:53;;;;;;;2.80;1.17;;;22.30;99.90;22.00;99866;;;;599978;238;23033;-81
2023/07/21 04:16:21;;;;;;;1.53;1.10;;;22.60;99.90;21.50;99884;;;;599192;238;24069;-84
2023/07/21 04:18:50;;;;;;;2.80;0.90;;;22.20;99.90;21.40;99871;;;;585079;243;24082;-79
2023/07/21 04:21:20;;;;;;;3.03;1.00;;;22.10;99.90;21.20;99883;;;;604337;238;24005;-80
2023/07/21 04:23:45;;;;;;;5.77;1.07;;;22.00;99.90;20.60;99879;;;;598518;238;24024;-80
2023/07/21 04:26:16;;;;;;;2.27;1.00;;;21.50;99.90;19.90;99873;;;;598611;238;24044;-80
2023/07/21 04:28:46;;;;;;;3.57;1.20;;;20.80;99.90;19.30;99871;;;;598731;238;24148;-80
2023/07/21 04:31:11;;;;;;;1.27;1.03;;;19.90;99.90;19.30;99868;;;;598073;238;24095;-80
2023/07/21 04:33:39;;;;;;;3.90;1.23;;;19.90;99.90;20.30;99882;;;;581173;245;24071;-80
2023/07/21 04:36:10;;;;;;;2.57;0.93;;;20.80;99.90;21.70;99882;;;;598906;236;24047;-80
2023/07/21 04:38:35;;;;;;;4.53;1.80;;;22.10;99.90;22.80;99885;;;;600408;237;24079;-80
2023/07/21 04:41:03;;;;;;;3.00;1.20;;;24.60;99.90;23.90;99890;;;;600155;237;23047;-81
2023/07/21 04:43:31;;;;;;;1.97;1.20;;;24.50;99.90;24.70;99895;;;;599920;237;24049;-80
2023/07/21 04:45:59;;;;;;;3.20;1.13;;;25.60;99.90;25.50;99892;;;;599744;237;23070;-79
2023/07/21 04:48:27;;;;;;;2.37;1.43;;;26.30;98.80;26.20;99890;;;;571154;248;23081;-80
2023/07/21 04:50:56;;;;;;;5.97;1.33;;;27.00;96.20;26.90;99888;;;;599659;237;23072;-80
2023/07/21 04:53:27;;;;;;;1.83;1.13;;;27.90;93.20;27.60;99900;;;;571172;243;24080;-81
2023/07/21 04:55:51;;;;;;;7.18;1.35;;;28.70;90.50;28.10;99883;;;;595729;237;23033;-81
2023/07/21 04:58:19;;;;;;;3.85;1.30;;;29.30;86.10;28.90;99884;;;;593319;237;24074;-81
2023/07/21 05:00:51;;;;;;;3.22;1.50;;;29.90;81.10;29.40;99904;;;;599950;237;23017;-79
2023/07/21 05:03:15;;;;;;;4.95;1.50;;;30.50;78.20;30.10;99889;;;;605149;237;23083;-82
2023/07/21 05:05:43;;;;;;;2.17;1.10;;;31.30;73.90;30.80;99891;;;;600032;237;23109;-82
2023/07/21 05:08:11;;;;;;;1.92;1.00;;;31.80;70.30;31.40;99901;;;;594024;237;23039;-81
2023/07/21 05:10:39;;;;;;;2.28;1.33;;;32.50;67.50;31.60;99898;;;;599986;237;23042;-80
2023/07/21 05:13:07;;;;;;;7.43;1.90;;;32.80;66.00;32.30;99913;;;;599906;238;23038;-80
2023/07/21 05:15:38;;;;;;;7.47;1.65;;;33.30;63.60;32.60;99914;;;;599648;238;24055;-80
2023/07/21 05:18:06;;;;;;;4.65;1.33;;;33.80;61.70;33.10;99911;;;;593440;238;23141;-80
2023/07/21 05:20:31;;;;;;;2.95;1.20;;;34.30;59.90;32.50;99921;;;;593318;238;23034;-80
2023/07/21 05:22:59;;;;;;;2.42;1.17;;;33.90;59.20;32.10;99920;;;;599521;238;23044;-80
2023/07/21 05:25:27;;;;;;;2.17;1.30;;;33.40;60.00;32.80;99922;;;;584948;243;23116;-80
2023/07/21 05:27:55;;;;;;;3.25;1.50;;;33.80;59.40;33.00;99926;;;;605310;238;24099;-81
2023/07/21 05:30:24;;;;;;;2.60;1.52;;;34.00;58.70;33.70;99924;;;;571101;248;23097;-80
2023/07/21 05:32:52;;;;;;;4.55;2.08;;;34.50;57.90;34.40;99933;;;;599566;238;23014;-82
2023/07/21 05:35:22;;;;;;;6.10;1.42;;;35.10;57.40;35.20;99935;;;;571109;248;23066;-80
2023/07/21 05:37:51;;;;;;;4.75;1.77;;;35.50;55.10;34.50;99928;;;;595296;234;23094;-80
2023/07/21 05:40:21;;;;;;;4.55;1.67;;;35.40;55.00;34.30;99928;;;;571235;248;23060;-81
2023/07/21 05:42:50;;;;;;;4.57;1.33;;;35.10;55.30;34.60;99933;;;;604577;238;23081;-81
2023/07/21 05:45:18;;;;;;;2.17;1.40;;;36.00;54.20;35.50;99937;;;;599198;238;23029;-81
2023/07/21 05:47:46;;;;;;;9.77;2.10;;;36.00;54.20;35.40;99942;;;;599289;237;23075;-80
2023/07/21 05:50:17;;;;;;;4.75;1.40;;;36.20;53.00;33.80;99942;;;;600368;237;23103;-79
2023/07/21 05:52:42;;;;;;;6.32;1.60;;;34.90;53.60;32.30;99936;;;;582844;246;23137;-80
2023/07/21 05:55:11;;;;;;;9.75;1.52;;;33.50;55.30;30.80;99934;;;;600580;237;24054;-78
2023/07/21 05:57:41;;;;;;;6.25;1.60;;;32.00;57.20;29.70;99932;;;;600340;237;23046;-83
2023/07/21 06:00:13;;;;;;;11.00;1.40;;;30.80;59.20;30.20;99936;;;;599498;237;23045;-83
2023/07/21 06:02:36;;;;;;;5.28;1.35;;;30.60;61.10;31.30;99931;;;;595626;237;23067;-82
2023/07/21 06:05:04;;;;;;;3.60;1.65;;;31.60;60.00;31.50;99928;;;;600308;237;23025;-80
2023/07/21 06:07:32;;;;;;;9.18;1.83;;;31.90;58.90;31.10;99935;;;;600621;237;23061;-78
2023/07/21 06:10:00;;;;;;;9.55;1.75;;;31.70;58.60;30.60;99939;;;;601018;237;24025;-81
2023/07/21 06:12:28;;;;;;;7.53;1.67;;;31.30;59.10;30.80;99932;;;;600913;237;24037;-81
2023/07/21 06:14:56;;;;;;;1.40;1.30;;;31.20;59.70;32.30;99924;;;;600853;237;23033;-82
2023/07/21 06:17:25;;;;;;;5.97;1.48;;;34.30;57.00;34.20;99921;;;;600385;237;23039;-82
2023/07/21 06:19:56;;;;;;;7.50;1.58;;;34.30;57.00;34.80;99925;;;;599554;237;23044;-82
2023/07/21 06:22:23;;;;;;;1.17;1.17;;;35.20;54.60;33.80;99924;;;;593477;237;23033;-82
2023/07/21 06:24:51;;;;;;;9.80;1.62;;;34.60;53.30;33.40;99919;;;;570735;247;24093;-81
2023/07/21 06:27:19;;;;;;;6.22;1.33;;;34.00;54.20;34.60;99925;;;;599106;238;23091;-81
2023/07/21 06:29:48;;;;;;;6.50;1.70;;;34.80;53.50;36.30;99928;;;;599513;238;23089;-84
2023/07/21 06:32:16;;;;;;;4.60;1.10;;;36.40;51.50;36.20;99930;;;;599775;238;24049;-82
2023/07/21 06:34:47;;;;;;;12.23;1.52;;;36.70;49.90;34.70;99931;;;;571171;248;23220;-82
2023/07/21 06:37:14;;;;;;;3.42;1.30;;;35.60;49.80;33.50;99931;;;;595652;238;23054;-85
2023/07/21 06:39:42;;;;;;;4.60;1.17;;;34.40;51.50;32.60;99924;;;;599712;238;23036;-82
2023/07/21 06:42:11;;;;;;;1.67;1.08;;;32.50;53.20;31.70;99927;;;;582454;244;23074;-82
2023/07/21 06:44:39;;;;;;;1.60;1.00;;;32.50;53.20;31.00;99924;;;;599658;238;23037;-85
2023/07/21 06:47:07;;;;;;;1.25;1.02;;;31.70;54.30;30.40;99926;;;;599712;238;23033;-85
2023/07/21 06:49:35;;;;;;;5.18;1.40;;;31.00;55.20;30.20;99933;;;;599426;238;23051;-85
2023/07/21 06:52:03;;;;;;;12.07;1.55;;;30.30;56.30;29.80;99935;;;;599251;238;23044;-85
2023/07/21 06:54:31;;;;;;;5.95;1.30;;;30.20;56.30;29.30;99932;;;;570711;248;24174;-84
2023/07/21 06:56:59;;;;;;;3.70;1.50;;;29.80;57.40;29.00;99938;;;;599339;238;23076;-83
2023/07/21 06:59:27;;;;;;;3.40;1.15;;;29.50;58.30;28.70;99936;;;;572930;247;23068;-83
2023/07/21 07:01:55;;;;;;;12.02;1.80;;;29.20;59.00;28.40;99938;;;;601000;237;23034;-83
2023/07/21 07:04:23;;;;;;;6.85;1.20;;;28.90;60.00;28.00;99941;;;;570138;247;23075;-82
2023/07/21 07:06:52;;;;;;;1.02;0.90;;;28.40;61.10;27.70;99939;;;;600023;237;23066;-82
2023/07/21 07:09:19;;;;;;;7.20;1.50;;;28.20;62.40;27.40;99948;;;;599858;237;23058;-83
2023/07/21 07:11:48;;;;;;;3.17;1.27;;;27.90;62.10;27.30;99943;;;;600196;237;23017;-83
2023/07/21 07:14:15;;;;;;;1.53;0.60;;;27.70;61.40;27.30;99949;;;;599915;237;23033;-83
2023/07/21 07:16:43;;;;;;;2.40;1.15;;;27.60;62.50;27.40;99941;;;;594748;237;34918;-81
2023/07/21 07:19:10;;;;;;;5.78;1.37;;;27.70;62.10;27.80;99945;;;;604963;237;24093;-81
2023/07/21 07:21:38;;;;;;;2.15;1.00;;;28.00;61.70;28.50;99948;;;;599282;237;23084;-80
2023/07/21 07:24:06;;;;;;;3.08;1.27;;;28.60;60.90;29.40;99945;;;;599473;237;23049;-82
2023/07/21 07:26:34;;;;;;;11.07;1.62;;;29.40;59.90;31.30;99944;;;;599738;237;24081;-84
2023/07/21 07:29:05;;;;;;;6.72;1.10;;;31.10;59.30;33.80;99944;;;;595598;237;23044;-81
2023/07/21 07:31:30;;;;;;;6.68;1.05;;;33.70;56.10;35.40;99959;;;;569484;248;24112;-81
2023/07/21 07:34:01;;;;;;;1.02;0.80;;;35.50;52.60;35.40;99952;;;;595650;237;23051;-85
2023/07/21 07:36:27;;;;;;;3.72;0.93;;;35.90;50.50;34.90;99950;;;;598728;238;23075;-81
2023/07/21 07:38:55;;;;;;;3.78;0.93;;;35.60;50.50;34.40;99955;;;;598910;238;23045;-81
2023/07/21 07:41:26;;;;;;;11.68;1.87;;;35.20;50.90;34.50;99960;;;;569455;248;23063;-80
2023/07/21 07:43:53;;;;;;;4.68;1.30;;;35.00;50.60;36.10;99966;;;;596134;238;23121;-82
2023/07/21 07:46:21;;;;;;;2.22;0.85;;;36.20;48.80;36.40;99971;;;;599836;238;23045;-81
2023/07/21 07:48:51;;;;;;;3.03;1.12;;;36.70;48.40;36.40;99969;;;;599609;238;23077;-82
2023/07/21 07:51:20;;;;;;;6.03;1.10;;;36.70;47.70;36.70;99976;;;;599017;238;23051;-82
2023/07/21 07:53:47;;;;;;;9.50;1.80;;;36.90;48.00;36.80;99974;;;;599045;238;23066;-82
2023/07/21 07:56:19;;;;;;;15.00;2.60;;;37.10;48.30;37.70;99976;;;;594086;238;34943;-81
2023/07/21 07:58:43;;;;;;;24.60;3.15;;;37.80;46.80;38.40;99975;;;;594834;238;24066;-81
2023/07/21 08:01:14;;;;;;;5.45;1.35;;;38.60;46.00;39.80;99970;;;;598578;238;23023;-80
2023/07/21 08:03:43;;;;;;;2.95;1.23;;;39.80;44.60;40.70;99980;;;;582334;245;23081;-84
2023/07/21 08:06:13;;;;;;;13.73;1.95;;;40.80;43.20;41.90;99978;;;;599923;238;23035;-84
2023/07/21 08:08:41;;;;;;;6.47;1.58;;;43.20;41.60;43.30;99982;;;;569372;248;23062;-84
2023/07/21 08:11:07;;;;;;;11.80;1.67;;;44.30;40.60;44.10;99988;;;;595421;237;23033;-82
2023/07/21 08:13:38;;;;;;;3.42;1.27;;;44.20;39.80;44.30;99988;;;;583198;244;23076;-82
2023/07/21 08:16:04;;;;;;;1.60;1.50;;;44.40;39.10;44.50;99988;;;;594615;237;23042;-83
2023/07/21 08:18:31;;;;;;;11.88;2.20;;;44.80;39.00;43.90;99994;;;;593835;237;23042;-82
2023/07/21 08:20:59;;;;;;;5.25;1.98;;;44.50;38.90;42.20;99992;;;;595498;237;23083;-83
2023/07/21 08:23:27;;;;;;;3.45;1.62;;;43.40;38.70;41.60;99997;;;;599960;237;23023;-82
2023/07/21 08:25:55;;;;;;;6.55;1.52;;;42.60;39.90;40.70;99989;;;;585184;243;23104;-82
2023/07/21 08:28:25;;;;;;;7.95;1.90;;;41.80;41.50;41.40;100004;;;;600162;237;34991;-81
2023/07/21 08:30:55;;;;;;;7.50;2.12;;;41.70;40.00;41.00;99998;;;;595536;237;23045;-82
2023/07/21 08:33:22;;;;;;;15.57;2.53;;;41.60;40.00;39.70;99995;;;;599616;237;23035;-82
2023/07/21 08:35:50;;;;;;;13.88;2.37;;;40.60;40.40;39.50;99989;;;;595668;237;24067;-83
2023/07/21 08:38:18;;;;;;;7.53;1.98;;;40.10;41.70;39.20;99997;;;;595589;237;23065;-83
2023/07/21 08:40:47;;;;;;;5.50;1.75;;;40.00;41.60;40.00;99990;;;;571169;248;24105;-81
2023/07/21 08:43:15;;;;;;;4.05;1.23;;;40.00;41.60;41.70;99998;;;;604453;237;23088;-82
2023/07/21 08:45:43;;;;;;;4.82;1.33;;;41.40;40.40;43.40;99988;;;;570934;248;23089;-82
2023/07/21 08:48:16;;;;;;;10.70;1.80;;;43.10;39.50;44.90;99991;;;;604954;237;23057;-82
2023/07/21 08:50:39;;;;;;;4.07;1.45;;;44.70;38.40;46.20;99991;;;;595006;238;23045;-80
2023/07/21 08:53:07;;;;;;;22.10;2.55;;;46.20;36.60;45.50;99996;;;;599949;238;23041;-79
2023/07/21 08:55:34;;;;;;;10.90;1.85;;;46.30;35.40;43.80;99996;;;;582304;246;23080;-84
2023/07/21 08:58:06;;;;;;;3.72;1.12;;;45.10;35.80;43.70;99999;;;;595565;238;23048;-81
2023/07/21 09:00:31;;;;;;;3.62;1.33;;;44.50;36.70;43.80;99994;;;;573424;248;23098;-81
2023/07/21 09:03:02;;;;;;;5.57;3.33;;;44.40;36.20;44.00;99994;;;;599351;238;23033;-81
2023/07/21 09:05:32;;;;;;;4.07;1.75;;;44.60;36.60;42.30;100004;;;;600014;238;23040;-80
2023/07/21 09:07:57;;;;;;;2.42;1.20;;;43.70;36.30;40.30;100003;;;;582123;247;23076;-79
2023/07/21 09:10:34;;;;;;;25.67;2.67;;;41.90;37.10;38.30;100000;;;;596410;238;23089;-80
2023/07/21 09:12:58;;;;;;;6.70;1.95;;;39.90;38.30;36.50;99997;;;;572500;248;23071;-80
2023/07/21 09:15:26;;;;;;;4.95;1.60;;;38.00;40.10;35.00;99998;;;;598532;238;24081;-81
2023/07/21 09:17:54;;;;;;;8.90;1.55;;;36.30;41.80;33.40;99992;;;;598845;238;23042;-81
2023/07/21 09:20:23;;;;;;;15.65;3.12;;;33.40;45.70;32.10;99994;;;;598648;238;24057;-81
2023/07/21 09:22:51;;;;;;;7.95;2.05;;;33.30;45.70;31.10;99989;;;;571060;247;23100;-81
2023/07/21 09:25:22;;;;;;;6.03;1.45;;;32.10;47.50;30.80;99995;;;;600404;237;23034;-81
2023/07/21 09:27:56;;;;;;;11.40;1.30;;;31.40;49.40;33.10;99994;;;;603508;237;23068;-81
2023/07/21 09:30:20;;;;;;;2.97;0.90;;;32.90;49.90;35.90;99997;;;;581802;246;23103;-80
2023/07/21 09:32:48;;;;;;;11.93;3.33;;;35.50;47.10;37.80;99991;;;;599189;236;23077;-79
2023/07/21 09:35:18;;;;;;;2.83;1.27;;;37.80;44.70;39.40;99990;;;;593372;237;23031;-82
2023/07/21 09:37:47;;;;;;;2.58;1.23;;;39.70;42.20;39.20;99989;;;;600507;237;23073;-81
2023/07/21 09:40:20;;;;;;;9.30;1.27;;;40.00;40.00;37.70;99987;;;;593637;237;23028;-82
2023/07/21 09:42:45;;;;;;;3.50;1.12;;;39.20;40.30;36.00;99995;;;;599197;237;23038;-82
2023/07/21 09:45:13;;;;;;;15.70;5.45;;;37.80;41.50;34.40;100002;;;;570957;243;23066;-81
2023/07/21 09:47:45;;;;;;;7.93;1.77;;;34.60;44.80;33.00;99986;;;;595104;237;23093;-80
2023/07/21 09:50:09;;;;;;;11.85;2.10;;;34.50;44.70;33.00;99992;;;;592840;237;23066;-81
2023/07/21 09:52:41;;;;;;;3.75;1.65;;;33.90;47.30;34.70;99992;;;;595027;237;23054;-80
2023/07/21 09:55:09;;;;;;;4.53;1.70;;;36.00;46.40;35.80;99989;;;;590218;243;24157;-81
2023/07/21 09:57:42;;;;;;;7.70;1.30;;;36.00;45.90;37.80;99995;;;;595295;237;23073;-82
2023/07/21 10:00:14;;;;;;;9.32;1.90;;;37.90;44.20;39.50;99995;;;;592073;238;23045;-82
2023/07/21 10:02:41;;;;;;;13.10;1.85;;;39.80;41.80;40.80;99993;;;;594463;238;23072;-85
2023/07/21 10:05:10;;;;;;;1.20;1.10;;;41.30;40.00;41.40;99990;;;;592597;238;23072;-84
2023/07/21 10:07:34;;;;;;;3.62;1.23;;;42.20;38.70;42.20;99988;;;;567940;248;23115;-84
2023/07/21 10:10:05;;;;;;;6.10;1.42;;;43.10;37.90;43.00;99989;;;;593086;238;23073;-82
2023/07/21 10:12:30;;;;;;;4.62;1.12;;;44.10;37.50;41.80;99994;;;;573076;248;23122;-83
2023/07/21 10:14:58;;;;;;;11.40;2.25;;;43.40;36.80;40.00;99992;;;;604008;238;23129;-83
2023/07/21 10:17:28;;;;;;;4.47;1.17;;;41.80;37.60;38.60;99987;;;;570694;248;23050;-81
2023/07/21 10:19:55;;;;;;;3.30;1.48;;;40.10;39.10;39.10;99991;;;;599144;238;24053;-85
2023/07/21 10:22:29;;;;;;;2.35;0.88;;;39.90;40.40;39.10;99988;;;;592111;238;23042;-83
2023/07/21 10:24:54;;;;;;;6.03;2.28;;;39.80;39.50;38.00;99990;;;;583404;243;23129;-83
2023/07/21 10:27:21;;;;;;;6.75;1.37;;;39.00;40.30;37.00;99993;;;;598715;238;23099;-84
2023/07/21 10:29:56;;;;;;;8.82;2.00;;;37.40;43.00;36.40;99984;;;;577031;248;24164;-82
2023/07/21 10:32:21;;;;;;;4.78;1.30;;;37.30;42.90;36.50;99981;;;;602069;238;23143;-80
2023/07/21 10:34:49;;;;;;;1.75;1.10;;;37.20;43.00;35.90;99985;;;;571309;247;24086;-80
2023/07/21 10:37:21;;;;;;;6.35;1.40;;;36.20;43.70;35.30;99979;;;;605637;234;23052;-83
2023/07/21 10:39:48;;;;;;;3.05;1.12;;;36.10;43.60;34.00;99983;;;;582107;243;23062;-81
2023/07/21 10:42:14;;;;;;;3.15;1.45;;;34.00;46.20;33.10;99984;;;;583256;241;23122;-82
2023/07/21 10:44:46;;;;;;;5.15;1.30;;;32.90;47.70;32.10;99989;;;;605501;237;23078;-81
2023/07/21 10:47:19;;;;;;;1.45;1.35;;;32.80;47.70;31.10;100000;;;;600105;237;24113;-81
2023/07/21 10:49:47;;;;;;;3.22;1.20;;;31.70;49.30;29.40;100014;;;;594169;237;23055;-78
2023/07/21 10:52:19;;;;;;;1.58;1.48;;;30.30;58.80;26.80;100000;;;;593628;237;23045;-81
2023/07/21 10:54:44;;;;;;;2.97;1.25;;;26.00;78.60;25.10;100006;;;;604771;237;24071;-83
2023/07/21 10:57:12;;;;;;;3.10;1.43;;;25.90;78.50;24.30;100000;;;;581535;246;24235;-81
2023/07/21 10:59:40;;;;;;;1.57;1.20;;;24.30;79.50;24.00;100001;;;;594643;237;24024;-79
2023/07/21 11:02:08;;;;;;;2.07;1.60;;;24.10;79.30;23.60;99995;;;;595207;237;24129;-79
2023/07/21 11:04:36;;;;;;;1.20;1.20;;;23.80;79.60;23.20;99987;;;;598626;237;24031;-79
2023/07/21 11:07:08;;;;;;;3.43;1.10;;;23.40;80.70;22.90;99999;;;;568558;248;24115;-81
2023/07/21 11:09:36;;;;;;;1.07;0.97;;;22.90;83.40;22.70;100002;;;;603623;237;27275;-79
2023/07/21 11:12:03;;;;;;;2.20;1.10;;;22.70;85.40;22.50;100005;;;;580801;247;24167;-79
2023/07/21 11:14:30;;;;;;;2.90;1.03;;;22.40;85.70;22.20;100000;;;;594664;238;24093;-78
2023/07/21 11:16:59;;;;;;;1.50;1.07;;;22.40;85.70;21.90;100000;;;;570353;248;24068;-81
2023/07/21 11:19:26;;;;;;;1.00;0.90;;;22.20;83.40;21.50;99997;;;;604276;237;24084;-79
2023/07/21 11:21:54;;;;;;;1.37;0.83;;;21.80;80.70;21.20;99991;;;;604046;238;24048;-80